Terminal Aerodrome Forecast
Issued by NWS

Home | Current Version | Previous Version | Graphics & Text | Print | Product List | Glossary On
Versions: 1 2 3 4 5 6 7 8 9 10 11 12 13 14
000
FTUS42 KMHX 251740
TAFOAJ
TAF
KOAJ 251740Z 2518/2618 21007KT P6SM -RA SCT030 OVC040
     FM252100 19008KT 5SM -RA BR SCT007 OVC020
     FM260000 18005KT 4SM -RA BR BKN007 OVC015
     FM260430 VRB03KT 3SM BR VCSH OVC004
     FM261500 31006KT P6SM VCSH OVC007
     FM261700 33008KT P6SM VCSH OVC015
      AMD LTD TO CLD VIS AND WIND=

USA.gov is the U.S. government's official web portal to all federal, state and local government web resources and services.